Accueil
METAR-TAF:

METAR-TAF

Aéroports :

Aéroport militaire Mario Berardi

Pratica Di Mare, Italie

latitude: 41-39N, longitude: 012-27E, altitude: 6 m

Observation

Le bulletin a été fait il y a 22 minutes, à 00:55 UTC
Vent 3 kt de nord/nord-est
Température 25°C
Humidité 54%
Pression 1015 hPa
Visibilité 10 km ou plus
Quelques nuages à une hauteur de 2600 ft
Nuages épars à une hauteur de 6000 ft

METAR: LIRE 270055Z 03003KT 9999 FEW026 SCT060 25/15 Q1015 RMK SCT VIS MIN 9999 WIND THR13 02003KT WIND THR31 /////KT BLU

Heure: 03:17 (01:17 UTC)

Prévision

Le bulletin a été fait il y a 2 heures et 17 minutes, à 23:00 UTC
Prévision valable du 27 à 00 UTC au 27 à 09 UTC
Vent 10 kt de sud/sud-est
Visibilité 10 km ou plus
Nuages épars à une hauteur de 2000 ft
Nuages épars à une hauteur de 6000 ft
Temporairement
du 27 à 00 UTC au 27 à 03 UTC
pluie

TAF: LIRE 262300Z 2700/2709 15010KT 9999 SCT020 SCT060 TEMPO 2700/2703 RA

Observations et prévisions météorologiques de plus de 4000 aéroports (messages METAR et TAF).

Les stations disponibles sont représentées par des disques jaunes et rouges sur la carte.

Passer la souris dessus pour voir le nom de la station.

Cliquer dessus pour voir les observations et prévisions météorologiques.

Pour changer de carte: cliquez sur les boutons verts avec une croix noire pour zoomer, sur le bouton vert avec un tiret pour effectuer un zoom arrière, ou sur les flèches vertes pour les cartes adjacentes.


METAR-TAF: